sensor_id;sensor_type;location;lat;lon;timestamp;P1;durP1;ratioP1;P2;durP2;ratioP2
21729;SDS011;11027;51.030;13.812;2023-04-03T00:02:13;3.55;;;1.20;;
21729;SDS011;11027;51.030;13.812;2023-04-03T00:04:38;4.13;;;1.20;;
21729;SDS011;11027;51.030;13.812;2023-04-03T00:07:03;3.72;;;1.08;;
21729;SDS011;11027;51.030;13.812;2023-04-03T00:09:29;5.35;;;1.10;;
21729;SDS011;11027;51.030;13.812;2023-04-03T00:11:54;7.28;;;1.65;;
21729;SDS011;11027;51.030;13.812;2023-04-03T00:14:20;2.20;;;1.10;;
21729;SDS011;11027;51.030;13.812;2023-04-03T00:16:45;3.00;;;1.15;;
21729;SDS011;11027;51.030;13.812;2023-04-03T00:19:10;4.88;;;1.33;;
21729;SDS011;11027;51.030;13.812;2023-04-03T00:21:36;4.68;;;1.40;;
21729;SDS011;11027;51.030;13.812;2023-04-03T00:24:02;3.50;;;1.20;;
21729;SDS011;11027;51.030;13.812;2023-04-03T00:26:27;3.25;;;1.58;;
21729;SDS011;11027;51.030;13.812;2023-04-03T00:28:53;5.50;;;1.23;;
21729;SDS011;11027;51.030;13.812;2023-04-03T00:31:18;4.80;;;1.60;;
21729;SDS011;11027;51.030;13.812;2023-04-03T00:33:43;3.05;;;1.35;;
21729;SDS011;11027;51.030;13.812;2023-04-03T00:36:09;3.28;;;1.42;;
21729;SDS011;11027;51.030;13.812;2023-04-03T00:38:35;5.78;;;1.70;;
21729;SDS011;11027;51.030;13.812;2023-04-03T00:41:01;5.05;;;1.50;;
21729;SDS011;11027;51.030;13.812;2023-04-03T00:43:27;5.03;;;1.33;;
21729;SDS011;11027;51.030;13.812;2023-04-03T00:45:56;5.68;;;1.70;;
21729;SDS011;11027;51.030;13.812;2023-04-03T00:48:24;4.00;;;1.77;;
21729;SDS011;11027;51.030;13.812;2023-04-03T00:50:53;6.15;;;1.95;;
21729;SDS011;11027;51.030;13.812;2023-04-03T00:53:22;2.85;;;1.40;;
21729;SDS011;11027;51.030;13.812;2023-04-03T00:55:58;3.70;;;1.42;;
21729;SDS011;11027;51.030;13.812;2023-04-03T00:58:36;4.28;;;1.65;;
21729;SDS011;11027;51.030;13.812;2023-04-03T01:01:05;5.88;;;1.40;;
21729;SDS011;11027;51.030;13.812;2023-04-03T01:03:35;5.07;;;1.23;;
21729;SDS011;11027;51.030;13.812;2023-04-03T01:06:00;5.72;;;1.50;;
21729;SDS011;11027;51.030;13.812;2023-04-03T01:08:25;4.03;;;1.50;;
21729;SDS011;11027;51.030;13.812;2023-04-03T01:10:51;2.17;;;1.10;;
21729;SDS011;11027;51.030;13.812;2023-04-03T01:13:17;3.45;;;1.48;;
21729;SDS011;11027;51.030;13.812;2023-04-03T01:15:45;4.65;;;1.35;;
21729;SDS011;11027;51.030;13.812;2023-04-03T01:18:10;2.55;;;1.30;;
21729;SDS011;11027;51.030;13.812;2023-04-03T01:23:40;4.65;;;1.08;;
21729;SDS011;11027;51.030;13.812;2023-04-03T01:26:22;3.58;;;1.40;;
21729;SDS011;11027;51.030;13.812;2023-04-03T01:28:48;2.72;;;1.50;;
21729;SDS011;11027;51.030;13.812;2023-04-03T01:31:27;4.45;;;1.55;;
21729;SDS011;11027;51.030;13.812;2023-04-03T01:33:56;2.83;;;1.10;;
21729;SDS011;11027;51.030;13.812;2023-04-03T01:36:26;4.93;;;1.85;;
21729;SDS011;11027;51.030;13.812;2023-04-03T01:38:53;4.15;;;1.50;;
21729;SDS011;11027;51.030;13.812;2023-04-03T01:41:19;3.00;;;1.30;;
21729;SDS011;11027;51.030;13.812;2023-04-03T01:43:46;6.07;;;1.48;;
21729;SDS011;11027;51.030;13.812;2023-04-03T01:46:12;4.10;;;1.48;;
21729;SDS011;11027;51.030;13.812;2023-04-03T01:48:37;6.25;;;1.60;;
21729;SDS011;11027;51.030;13.812;2023-04-03T01:51:02;2.97;;;1.33;;
21729;SDS011;11027;51.030;13.812;2023-04-03T01:53:28;3.20;;;1.27;;
21729;SDS011;11027;51.030;13.812;2023-04-03T01:55:53;2.65;;;1.48;;
21729;SDS011;11027;51.030;13.812;2023-04-03T01:58:18;3.03;;;1.48;;
21729;SDS011;11027;51.030;13.812;2023-04-03T02:00:43;4.18;;;1.55;;
21729;SDS011;11027;51.030;13.812;2023-04-03T02:03:09;3.80;;;1.65;;
21729;SDS011;11027;51.030;13.812;2023-04-03T02:05:34;3.00;;;1.50;;
21729;SDS011;11027;51.030;13.812;2023-04-03T02:07:59;3.05;;;1.55;;
21729;SDS011;11027;51.030;13.812;2023-04-03T02:10:25;6.57;;;1.75;;
21729;SDS011;11027;51.030;13.812;2023-04-03T02:12:50;7.75;;;1.75;;
21729;SDS011;11027;51.030;13.812;2023-04-03T02:15:16;2.92;;;1.23;;
21729;SDS011;11027;51.030;13.812;2023-04-03T02:17:41;5.40;;;1.20;;
21729;SDS011;11027;51.030;13.812;2023-04-03T02:20:07;5.97;;;1.70;;
21729;SDS011;11027;51.030;13.812;2023-04-03T02:22:32;4.22;;;1.73;;
21729;SDS011;11027;51.030;13.812;2023-04-03T02:24:58;4.07;;;1.50;;
21729;SDS011;11027;51.030;13.812;2023-04-03T02:27:23;4.95;;;1.48;;
21729;SDS011;11027;51.030;13.812;2023-04-03T02:29:48;3.92;;;1.50;;
21729;SDS011;11027;51.030;13.812;2023-04-03T02:32:13;2.92;;;1.52;;
21729;SDS011;11027;51.030;13.812;2023-04-03T02:34:39;4.30;;;1.50;;
21729;SDS011;11027;51.030;13.812;2023-04-03T02:37:04;5.53;;;1.48;;
21729;SDS011;11027;51.030;13.812;2023-04-03T02:39:30;3.00;;;1.40;;
21729;SDS011;11027;51.030;13.812;2023-04-03T02:41:55;3.53;;;1.33;;
21729;SDS011;11027;51.030;13.812;2023-04-03T02:44:20;5.20;;;1.33;;
21729;SDS011;11027;51.030;13.812;2023-04-03T02:46:45;4.15;;;1.45;;
21729;SDS011;11027;51.030;13.812;2023-04-03T02:49:11;5.35;;;2.00;;
21729;SDS011;11027;51.030;13.812;2023-04-03T02:51:36;4.10;;;1.30;;
21729;SDS011;11027;51.030;13.812;2023-04-03T02:54:02;4.93;;;1.42;;
21729;SDS011;11027;51.030;13.812;2023-04-03T02:56:27;4.70;;;1.40;;
21729;SDS011;11027;51.030;13.812;2023-04-03T02:58:52;4.55;;;1.35;;
21729;SDS011;11027;51.030;13.812;2023-04-03T03:01:18;6.93;;;1.30;;
21729;SDS011;11027;51.030;13.812;2023-04-03T03:03:43;5.28;;;1.80;;
21729;SDS011;11027;51.030;13.812;2023-04-03T03:06:09;3.88;;;1.38;;
21729;SDS011;11027;51.030;13.812;2023-04-03T03:08:36;5.22;;;1.30;;
21729;SDS011;11027;51.030;13.812;2023-04-03T03:11:02;6.65;;;1.60;;
21729;SDS011;11027;51.030;13.812;2023-04-03T03:13:28;3.88;;;1.40;;
21729;SDS011;11027;51.030;13.812;2023-04-03T03:15:54;5.55;;;1.50;;
21729;SDS011;11027;51.030;13.812;2023-04-03T03:18:19;5.78;;;1.40;;
21729;SDS011;11027;51.030;13.812;2023-04-03T03:20:44;5.78;;;1.50;;
21729;SDS011;11027;51.030;13.812;2023-04-03T03:23:10;8.00;;;1.90;;
21729;SDS011;11027;51.030;13.812;2023-04-03T03:25:39;5.03;;;1.58;;
21729;SDS011;11027;51.030;13.812;2023-04-03T03:28:05;3.85;;;1.30;;
21729;SDS011;11027;51.030;13.812;2023-04-03T03:30:31;4.60;;;1.50;;
21729;SDS011;11027;51.030;13.812;2023-04-03T03:32:56;4.15;;;1.23;;
21729;SDS011;11027;51.030;13.812;2023-04-03T03:35:22;10.90;;;1.58;;
21729;SDS011;11027;51.030;13.812;2023-04-03T03:37:47;5.28;;;1.77;;
21729;SDS011;11027;51.030;13.812;2023-04-03T03:40:12;4.40;;;1.60;;
21729;SDS011;11027;51.030;13.812;2023-04-03T03:42:38;5.45;;;1.70;;
21729;SDS011;11027;51.030;13.812;2023-04-03T03:45:03;9.50;;;1.52;;
21729;SDS011;11027;51.030;13.812;2023-04-03T03:47:29;9.48;;;1.55;;
21729;SDS011;11027;51.030;13.812;2023-04-03T03:49:54;2.55;;;1.45;;
21729;SDS011;11027;51.030;13.812;2023-04-03T03:52:20;5.28;;;1.20;;
21729;SDS011;11027;51.030;13.812;2023-04-03T03:54:45;5.07;;;1.38;;
21729;SDS011;11027;51.030;13.812;2023-04-03T03:57:10;4.97;;;1.35;;
21729;SDS011;11027;51.030;13.812;2023-04-03T03:59:35;5.07;;;1.70;;
21729;SDS011;11027;51.030;13.812;2023-04-03T04:02:01;3.13;;;1.60;;
21729;SDS011;11027;51.030;13.812;2023-04-03T04:04:26;6.60;;;1.30;;
21729;SDS011;11027;51.030;13.812;2023-04-03T04:06:51;5.20;;;1.73;;
21729;SDS011;11027;51.030;13.812;2023-04-03T04:09:16;4.53;;;1.50;;
21729;SDS011;11027;51.030;13.812;2023-04-03T04:11:42;3.15;;;1.50;;
21729;SDS011;11027;51.030;13.812;2023-04-03T04:14:07;6.35;;;1.98;;
21729;SDS011;11027;51.030;13.812;2023-04-03T04:16:32;5.57;;;1.63;;
21729;SDS011;11027;51.030;13.812;2023-04-03T04:18:58;2.92;;;1.33;;
21729;SDS011;11027;51.030;13.812;2023-04-03T04:21:23;6.50;;;1.55;;
21729;SDS011;11027;51.030;13.812;2023-04-03T04:23:48;3.85;;;1.70;;
21729;SDS011;11027;51.030;13.812;2023-04-03T04:26:14;5.00;;;1.50;;
21729;SDS011;11027;51.030;13.812;2023-04-03T04:28:42;4.97;;;1.45;;
21729;SDS011;11027;51.030;13.812;2023-04-03T04:31:07;4.43;;;1.50;;
21729;SDS011;11027;51.030;13.812;2023-04-03T04:33:32;4.60;;;1.67;;
21729;SDS011;11027;51.030;13.812;2023-04-03T04:35:57;4.82;;;1.65;;
21729;SDS011;11027;51.030;13.812;2023-04-03T04:38:22;3.33;;;1.38;;
21729;SDS011;11027;51.030;13.812;2023-04-03T04:40:48;3.20;;;1.48;;
21729;SDS011;11027;51.030;13.812;2023-04-03T04:43:14;5.97;;;1.50;;
21729;SDS011;11027;51.030;13.812;2023-04-03T04:45:40;4.82;;;1.52;;
21729;SDS011;11027;51.030;13.812;2023-04-03T04:48:05;5.38;;;1.67;;
21729;SDS011;11027;51.030;13.812;2023-04-03T04:50:30;6.97;;;1.45;;
21729;SDS011;11027;51.030;13.812;2023-04-03T04:52:56;6.30;;;1.50;;
21729;SDS011;11027;51.030;13.812;2023-04-03T04:55:21;6.70;;;1.42;;
21729;SDS011;11027;51.030;13.812;2023-04-03T04:57:46;7.97;;;1.70;;
21729;SDS011;11027;51.030;13.812;2023-04-03T05:00:12;7.95;;;1.73;;
21729;SDS011;11027;51.030;13.812;2023-04-03T05:02:38;7.20;;;1.63;;
21729;SDS011;11027;51.030;13.812;2023-04-03T05:05:03;4.28;;;1.38;;
21729;SDS011;11027;51.030;13.812;2023-04-03T05:07:28;4.97;;;2.13;;
21729;SDS011;11027;51.030;13.812;2023-04-03T05:09:54;6.13;;;1.67;;
21729;SDS011;11027;51.030;13.812;2023-04-03T05:12:19;6.50;;;1.63;;
21729;SDS011;11027;51.030;13.812;2023-04-03T05:14:44;4.55;;;1.70;;
21729;SDS011;11027;51.030;13.812;2023-04-03T05:17:10;4.78;;;1.55;;
21729;SDS011;11027;51.030;13.812;2023-04-03T05:19:35;6.80;;;1.75;;
21729;SDS011;11027;51.030;13.812;2023-04-03T05:22:00;3.25;;;1.70;;
21729;SDS011;11027;51.030;13.812;2023-04-03T05:24:25;4.43;;;1.70;;
21729;SDS011;11027;51.030;13.812;2023-04-03T05:26:51;10.45;;;1.60;;
21729;SDS011;11027;51.030;13.812;2023-04-03T05:29:16;4.43;;;1.75;;
21729;SDS011;11027;51.030;13.812;2023-04-03T05:31:41;6.32;;;1.50;;
21729;SDS011;11027;51.030;13.812;2023-04-03T05:34:07;7.38;;;1.92;;
21729;SDS011;11027;51.030;13.812;2023-04-03T05:36:32;7.88;;;2.05;;
21729;SDS011;11027;51.030;13.812;2023-04-03T05:38:57;3.65;;;1.60;;
21729;SDS011;11027;51.030;13.812;2023-04-03T05:41:22;4.60;;;1.60;;
21729;SDS011;11027;51.030;13.812;2023-04-03T05:43:48;3.58;;;1.50;;
21729;SDS011;11027;51.030;13.812;2023-04-03T05:46:14;4.22;;;1.52;;
21729;SDS011;11027;51.030;13.812;2023-04-03T05:48:42;4.07;;;1.60;;
21729;SDS011;11027;51.030;13.812;2023-04-03T05:51:09;5.10;;;1.90;;
21729;SDS011;11027;51.030;13.812;2023-04-03T05:53:40;5.75;;;1.63;;
21729;SDS011;11027;51.030;13.812;2023-04-03T05:56:06;7.30;;;1.73;;
21729;SDS011;11027;51.030;13.812;2023-04-03T05:58:31;5.88;;;1.75;;
21729;SDS011;11027;51.030;13.812;2023-04-03T06:00:56;5.75;;;1.92;;
21729;SDS011;11027;51.030;13.812;2023-04-03T06:03:22;2.97;;;1.60;;
21729;SDS011;11027;51.030;13.812;2023-04-03T06:05:47;4.30;;;1.70;;
21729;SDS011;11027;51.030;13.812;2023-04-03T06:08:13;8.63;;;2.00;;
21729;SDS011;11027;51.030;13.812;2023-04-03T06:10:39;4.10;;;1.80;;
21729;SDS011;11027;51.030;13.812;2023-04-03T06:13:05;5.45;;;1.50;;
21729;SDS011;11027;51.030;13.812;2023-04-03T06:15:30;3.95;;;1.70;;
21729;SDS011;11027;51.030;13.812;2023-04-03T06:17:56;7.78;;;1.50;;
21729;SDS011;11027;51.030;13.812;2023-04-03T06:20:21;7.88;;;1.70;;
21729;SDS011;11027;51.030;13.812;2023-04-03T06:22:47;5.88;;;1.83;;
21729;SDS011;11027;51.030;13.812;2023-04-03T06:25:13;11.15;;;1.60;;
21729;SDS011;11027;51.030;13.812;2023-04-03T06:27:38;4.60;;;1.73;;
21729;SDS011;11027;51.030;13.812;2023-04-03T06:30:04;5.88;;;2.13;;
21729;SDS011;11027;51.030;13.812;2023-04-03T06:32:31;5.78;;;2.28;;
21729;SDS011;11027;51.030;13.812;2023-04-03T06:34:56;5.43;;;1.80;;
21729;SDS011;11027;51.030;13.812;2023-04-03T06:37:22;5.05;;;1.77;;
21729;SDS011;11027;51.030;13.812;2023-04-03T06:39:47;6.85;;;1.80;;
21729;SDS011;11027;51.030;13.812;2023-04-03T06:42:13;5.07;;;1.83;;
21729;SDS011;11027;51.030;13.812;2023-04-03T06:44:39;4.90;;;2.00;;
21729;SDS011;11027;51.030;13.812;2023-04-03T06:47:04;9.35;;;2.42;;
21729;SDS011;11027;51.030;13.812;2023-04-03T06:49:29;10.77;;;2.20;;
21729;SDS011;11027;51.030;13.812;2023-04-03T06:51:55;7.13;;;1.90;;
21729;SDS011;11027;51.030;13.812;2023-04-03T06:54:21;5.13;;;1.85;;
21729;SDS011;11027;51.030;13.812;2023-04-03T06:56:47;3.65;;;1.75;;
21729;SDS011;11027;51.030;13.812;2023-04-03T06:59:13;3.25;;;1.40;;
21729;SDS011;11027;51.030;13.812;2023-04-03T07:01:39;5.28;;;2.10;;
21729;SDS011;11027;51.030;13.812;2023-04-03T07:04:05;5.25;;;1.73;;
21729;SDS011;11027;51.030;13.812;2023-04-03T07:06:31;5.47;;;1.52;;
21729;SDS011;11027;51.030;13.812;2023-04-03T07:08:58;6.45;;;1.58;;
21729;SDS011;11027;51.030;13.812;2023-04-03T07:11:23;6.25;;;2.05;;
21729;SDS011;11027;51.030;13.812;2023-04-03T07:13:49;4.45;;;1.60;;
21729;SDS011;11027;51.030;13.812;2023-04-03T07:16:15;3.58;;;1.45;;
21729;SDS011;11027;51.030;13.812;2023-04-03T07:18:40;6.18;;;1.80;;
21729;SDS011;11027;51.030;13.812;2023-04-03T07:21:06;9.38;;;1.92;;
21729;SDS011;11027;51.030;13.812;2023-04-03T07:23:31;6.55;;;2.10;;
21729;SDS011;11027;51.030;13.812;2023-04-03T07:25:57;8.15;;;1.75;;
21729;SDS011;11027;51.030;13.812;2023-04-03T07:28:23;6.15;;;1.80;;
21729;SDS011;11027;51.030;13.812;2023-04-03T07:30:49;7.65;;;2.30;;
21729;SDS011;11027;51.030;13.812;2023-04-03T07:33:17;7.40;;;2.00;;
21729;SDS011;11027;51.030;13.812;2023-04-03T07:35:43;7.22;;;1.45;;
21729;SDS011;11027;51.030;13.812;2023-04-03T07:38:10;7.55;;;1.75;;
21729;SDS011;11027;51.030;13.812;2023-04-03T07:40:36;6.63;;;1.70;;
21729;SDS011;11027;51.030;13.812;2023-04-03T07:43:01;6.03;;;1.85;;
21729;SDS011;11027;51.030;13.812;2023-04-03T07:45:27;4.60;;;1.83;;
21729;SDS011;11027;51.030;13.812;2023-04-03T07:47:52;7.05;;;1.77;;
21729;SDS011;11027;51.030;13.812;2023-04-03T07:50:18;7.70;;;1.52;;
21729;SDS011;11027;51.030;13.812;2023-04-03T07:52:43;5.18;;;1.88;;
21729;SDS011;11027;51.030;13.812;2023-04-03T07:55:10;6.80;;;2.00;;
21729;SDS011;11027;51.030;13.812;2023-04-03T07:57:35;5.43;;;1.92;;
21729;SDS011;11027;51.030;13.812;2023-04-03T08:00:01;6.93;;;2.10;;
21729;SDS011;11027;51.030;13.812;2023-04-03T08:02:27;6.07;;;1.30;;
21729;SDS011;11027;51.030;13.812;2023-04-03T08:04:52;7.93;;;1.83;;
21729;SDS011;11027;51.030;13.812;2023-04-03T08:07:18;8.07;;;1.85;;
21729;SDS011;11027;51.030;13.812;2023-04-03T08:09:43;6.93;;;2.30;;
21729;SDS011;11027;51.030;13.812;2023-04-03T08:12:09;4.80;;;1.55;;
21729;SDS011;11027;51.030;13.812;2023-04-03T08:14:36;5.68;;;1.85;;
21729;SDS011;11027;51.030;13.812;2023-04-03T08:17:02;6.22;;;1.63;;
21729;SDS011;11027;51.030;13.812;2023-04-03T08:19:29;7.57;;;1.85;;
21729;SDS011;11027;51.030;13.812;2023-04-03T08:21:54;5.55;;;1.80;;
21729;SDS011;11027;51.030;13.812;2023-04-03T08:24:20;6.35;;;2.05;;
21729;SDS011;11027;51.030;13.812;2023-04-03T08:26:45;7.70;;;1.80;;
21729;SDS011;11027;51.030;13.812;2023-04-03T08:29:10;8.02;;;1.70;;
21729;SDS011;11027;51.030;13.812;2023-04-03T08:31:35;5.50;;;1.67;;
21729;SDS011;11027;51.030;13.812;2023-04-03T08:34:01;4.10;;;1.20;;
21729;SDS011;11027;51.030;13.812;2023-04-03T08:36:27;4.15;;;1.58;;
21729;SDS011;11027;51.030;13.812;2023-04-03T08:38:54;3.03;;;1.48;;
21729;SDS011;11027;51.030;13.812;2023-04-03T08:44:02;5.13;;;1.60;;
21729;SDS011;11027;51.030;13.812;2023-04-03T08:47:18;4.63;;;1.88;;
21729;SDS011;11027;51.030;13.812;2023-04-03T08:49:55;4.00;;;1.40;;
21729;SDS011;11027;51.030;13.812;2023-04-03T08:52:38;4.13;;;1.23;;
21729;SDS011;11027;51.030;13.812;2023-04-03T08:55:20;4.45;;;1.67;;
21729;SDS011;11027;51.030;13.812;2023-04-03T08:57:51;4.53;;;1.63;;
21729;SDS011;11027;51.030;13.812;2023-04-03T09:00:25;4.88;;;1.48;;
21729;SDS011;11027;51.030;13.812;2023-04-03T09:02:54;4.47;;;1.70;;
21729;SDS011;11027;51.030;13.812;2023-04-03T09:08:24;4.88;;;1.50;;
21729;SDS011;11027;51.030;13.812;2023-04-03T09:10:58;6.05;;;1.45;;
21729;SDS011;11027;51.030;13.812;2023-04-03T09:16:21;3.55;;;1.45;;
21729;SDS011;11027;51.030;13.812;2023-04-03T09:18:57;5.55;;;1.55;;
21729;SDS011;11027;51.030;13.812;2023-04-03T09:21:37;6.55;;;1.65;;
21729;SDS011;11027;51.030;13.812;2023-04-03T09:24:04;3.63;;;1.20;;
21729;SDS011;11027;51.030;13.812;2023-04-03T09:29:20;3.50;;;1.42;;
21729;SDS011;11027;51.030;13.812;2023-04-03T09:31:48;6.35;;;1.52;;
21729;SDS011;11027;51.030;13.812;2023-04-03T09:34:23;4.85;;;1.40;;
21729;SDS011;11027;51.030;13.812;2023-04-03T09:36:52;4.28;;;1.30;;
21729;SDS011;11027;51.030;13.812;2023-04-03T09:39:20;5.07;;;1.50;;
21729;SDS011;11027;51.030;13.812;2023-04-03T09:42:01;5.85;;;1.33;;
21729;SDS011;11027;51.030;13.812;2023-04-03T09:44:30;4.32;;;1.65;;
21729;SDS011;11027;51.030;13.812;2023-04-03T09:46:55;6.18;;;1.08;;
21729;SDS011;11027;51.030;13.812;2023-04-03T09:49:21;5.82;;;1.70;;
21729;SDS011;11027;51.030;13.812;2023-04-03T09:51:46;3.42;;;1.27;;
21729;SDS011;11027;51.030;13.812;2023-04-03T09:54:45;5.15;;;1.40;;
21729;SDS011;11027;51.030;13.812;2023-04-03T09:57:09;2.88;;;0.93;;
21729;SDS011;11027;51.030;13.812;2023-04-03T09:59:38;4.32;;;1.10;;
21729;SDS011;11027;51.030;13.812;2023-04-03T10:02:32;5.90;;;1.08;;
21729;SDS011;11027;51.030;13.812;2023-04-03T10:05:00;6.40;;;0.90;;
21729;SDS011;11027;51.030;13.812;2023-04-03T10:12:47;3.17;;;0.85;;
21729;SDS011;11027;51.030;13.812;2023-04-03T10:15:14;3.92;;;0.93;;
21729;SDS011;11027;51.030;13.812;2023-04-03T10:17:54;2.92;;;0.93;;
21729;SDS011;11027;51.030;13.812;2023-04-03T10:25:55;4.78;;;1.15;;
21729;SDS011;11027;51.030;13.812;2023-04-03T10:31:37;6.55;;;1.35;;
21729;SDS011;11027;51.030;13.812;2023-04-03T10:34:20;3.00;;;1.13;;
21729;SDS011;11027;51.030;13.812;2023-04-03T10:36:56;4.07;;;1.20;;
21729;SDS011;11027;51.030;13.812;2023-04-03T10:39:37;6.05;;;1.20;;
21729;SDS011;11027;51.030;13.812;2023-04-03T10:42:15;3.42;;;0.80;;
21729;SDS011;11027;51.030;13.812;2023-04-03T10:45:03;3.42;;;1.10;;
21729;SDS011;11027;51.030;13.812;2023-04-03T10:50:57;3.03;;;1.15;;
21729;SDS011;11027;51.030;13.812;2023-04-03T10:53:36;3.72;;;1.00;;
21729;SDS011;11027;51.030;13.812;2023-04-03T10:58:57;3.47;;;0.85;;
21729;SDS011;11027;51.030;13.812;2023-04-03T11:01:33;2.53;;;0.85;;
21729;SDS011;11027;51.030;13.812;2023-04-03T11:04:03;3.63;;;0.85;;
21729;SDS011;11027;51.030;13.812;2023-04-03T11:06:32;2.00;;;0.60;;
21729;SDS011;11027;51.030;13.812;2023-04-03T11:09:16;2.22;;;0.80;;
21729;SDS011;11027;51.030;13.812;2023-04-03T11:11:58;6.32;;;0.80;;
21729;SDS011;11027;51.030;13.812;2023-04-03T11:14:30;3.28;;;0.80;;
21729;SDS011;11027;51.030;13.812;2023-04-03T11:17:02;3.95;;;0.90;;
21729;SDS011;11027;51.030;13.812;2023-04-03T11:22:30;4.43;;;1.20;;
21729;SDS011;11027;51.030;13.812;2023-04-03T11:27:38;1.77;;;0.82;;
21729;SDS011;11027;51.030;13.812;2023-04-03T11:30:22;4.97;;;0.90;;
21729;SDS011;11027;51.030;13.812;2023-04-03T11:33:07;3.72;;;0.80;;
21729;SDS011;11027;51.030;13.812;2023-04-03T11:35:42;2.97;;;0.80;;
21729;SDS011;11027;51.030;13.812;2023-04-03T11:38:10;6.32;;;1.35;;
21729;SDS011;11027;51.030;13.812;2023-04-03T11:40:43;4.03;;;1.00;;
21729;SDS011;11027;51.030;13.812;2023-04-03T11:43:23;3.20;;;0.80;;
21729;SDS011;11027;51.030;13.812;2023-04-03T11:46:03;2.70;;;0.88;;
21729;SDS011;11027;51.030;13.812;2023-04-03T11:51:00;2.63;;;0.60;;
21729;SDS011;11027;51.030;13.812;2023-04-03T11:53:46;2.40;;;1.05;;
21729;SDS011;11027;51.030;13.812;2023-04-03T12:01:42;2.15;;;0.90;;
21729;SDS011;11027;51.030;13.812;2023-04-03T12:04:10;2.67;;;0.80;;
21729;SDS011;11027;51.030;13.812;2023-04-03T12:09:21;2.92;;;1.00;;
21729;SDS011;11027;51.030;13.812;2023-04-03T12:11:49;2.78;;;0.90;;
21729;SDS011;11027;51.030;13.812;2023-04-03T12:14:16;2.78;;;0.90;;
21729;SDS011;11027;51.030;13.812;2023-04-03T12:16:43;4.00;;;1.02;;
21729;SDS011;11027;51.030;13.812;2023-04-03T12:34:42;2.58;;;1.13;;
21729;SDS011;11027;51.030;13.812;2023-04-03T12:40:16;4.18;;;0.90;;
21729;SDS011;11027;51.030;13.812;2023-04-03T12:43:05;3.25;;;1.00;;
21729;SDS011;11027;51.030;13.812;2023-04-03T12:48:25;3.85;;;1.00;;
21729;SDS011;11027;51.030;13.812;2023-04-03T12:50:52;4.00;;;1.20;;
21729;SDS011;11027;51.030;13.812;2023-04-03T12:53:33;3.95;;;1.00;;
21729;SDS011;11027;51.030;13.812;2023-04-03T12:58:50;3.20;;;1.08;;
21729;SDS011;11027;51.030;13.812;2023-04-03T13:01:18;2.50;;;1.10;;
21729;SDS011;11027;51.030;13.812;2023-04-03T13:03:53;2.45;;;0.85;;
21729;SDS011;11027;51.030;13.812;2023-04-03T13:06:21;2.58;;;1.02;;
21729;SDS011;11027;51.030;13.812;2023-04-03T13:08:53;4.32;;;1.13;;
21729;SDS011;11027;51.030;13.812;2023-04-03T13:11:23;4.07;;;1.08;;
21729;SDS011;11027;51.030;13.812;2023-04-03T13:13:58;2.15;;;0.93;;
21729;SDS011;11027;51.030;13.812;2023-04-03T13:16:30;2.55;;;0.98;;
21729;SDS011;11027;51.030;13.812;2023-04-03T13:18:56;1.90;;;0.90;;
21729;SDS011;11027;51.030;13.812;2023-04-03T13:21:26;3.75;;;1.10;;
21729;SDS011;11027;51.030;13.812;2023-04-03T13:23:54;2.65;;;1.02;;
21729;SDS011;11027;51.030;13.812;2023-04-03T13:26:27;4.45;;;1.58;;
21729;SDS011;11027;51.030;13.812;2023-04-03T13:28:56;3.67;;;1.08;;
21729;SDS011;11027;51.030;13.812;2023-04-03T13:31:27;2.38;;;0.90;;
21729;SDS011;11027;51.030;13.812;2023-04-03T13:34:12;3.85;;;1.05;;
21729;SDS011;11027;51.030;13.812;2023-04-03T13:36:44;1.38;;;0.90;;
21729;SDS011;11027;51.030;13.812;2023-04-03T13:39:30;4.03;;;1.08;;
21729;SDS011;11027;51.030;13.812;2023-04-03T13:41:59;3.67;;;1.27;;
21729;SDS011;11027;51.030;13.812;2023-04-03T13:44:29;4.10;;;1.30;;
21729;SDS011;11027;51.030;13.812;2023-04-03T13:47:01;3.08;;;1.13;;
21729;SDS011;11027;51.030;13.812;2023-04-03T13:49:44;3.03;;;0.90;;
21729;SDS011;11027;51.030;13.812;2023-04-03T13:52:25;4.20;;;1.00;;
21729;SDS011;11027;51.030;13.812;2023-04-03T13:55:01;4.30;;;1.02;;
21729;SDS011;11027;51.030;13.812;2023-04-03T13:57:36;2.92;;;1.20;;
21729;SDS011;11027;51.030;13.812;2023-04-03T14:00:18;2.90;;;1.02;;
21729;SDS011;11027;51.030;13.812;2023-04-03T14:02:53;7.45;;;1.10;;
21729;SDS011;11027;51.030;13.812;2023-04-03T14:05:21;1.60;;;0.77;;
21729;SDS011;11027;51.030;13.812;2023-04-03T14:07:49;2.42;;;0.85;;
21729;SDS011;11027;51.030;13.812;2023-04-03T14:10:15;2.92;;;0.98;;
21729;SDS011;11027;51.030;13.812;2023-04-03T14:12:41;1.30;;;0.82;;
21729;SDS011;11027;51.030;13.812;2023-04-03T14:15:11;2.40;;;0.82;;
21729;SDS011;11027;51.030;13.812;2023-04-03T14:17:52;4.57;;;1.92;;
21729;SDS011;11027;51.030;13.812;2023-04-03T14:20:19;3.10;;;1.10;;
21729;SDS011;11027;51.030;13.812;2023-04-03T14:22:47;2.42;;;0.93;;
21729;SDS011;11027;51.030;13.812;2023-04-03T14:25:13;2.35;;;0.80;;
21729;SDS011;11027;51.030;13.812;2023-04-03T14:27:41;3.15;;;1.10;;
21729;SDS011;11027;51.030;13.812;2023-04-03T14:30:11;4.25;;;1.10;;
21729;SDS011;11027;51.030;13.812;2023-04-03T14:32:58;4.25;;;0.90;;
21729;SDS011;11027;51.030;13.812;2023-04-03T14:35:24;2.63;;;1.10;;
21729;SDS011;11027;51.030;13.812;2023-04-03T14:37:50;4.25;;;1.10;;
21729;SDS011;11027;51.030;13.812;2023-04-03T14:40:22;1.70;;;0.90;;
21729;SDS011;11027;51.030;13.812;2023-04-03T14:42:50;5.57;;;1.10;;
21729;SDS011;11027;51.030;13.812;2023-04-03T14:45:16;2.33;;;0.73;;
21729;SDS011;11027;51.030;13.812;2023-04-03T14:47:47;1.83;;;0.85;;
21729;SDS011;11027;51.030;13.812;2023-04-03T14:50:15;5.22;;;1.08;;
21729;SDS011;11027;51.030;13.812;2023-04-03T14:52:43;8.93;;;1.25;;
21729;SDS011;11027;51.030;13.812;2023-04-03T14:55:18;4.00;;;1.73;;
21729;SDS011;11027;51.030;13.812;2023-04-03T14:57:45;3.20;;;1.00;;
21729;SDS011;11027;51.030;13.812;2023-04-03T15:00:17;2.40;;;1.08;;
21729;SDS011;11027;51.030;13.812;2023-04-03T15:02:44;6.38;;;1.20;;
21729;SDS011;11027;51.030;13.812;2023-04-03T15:05:11;2.38;;;1.08;;
21729;SDS011;11027;51.030;13.812;2023-04-03T15:07:38;5.18;;;1.40;;
21729;SDS011;11027;51.030;13.812;2023-04-03T15:10:16;5.55;;;1.00;;
21729;SDS011;11027;51.030;13.812;2023-04-03T15:12:44;2.25;;;1.17;;
21729;SDS011;11027;51.030;13.812;2023-04-03T15:15:11;3.35;;;1.10;;
21729;SDS011;11027;51.030;13.812;2023-04-03T15:17:36;1.38;;;0.88;;
21729;SDS011;11027;51.030;13.812;2023-04-03T15:20:02;3.33;;;1.02;;
21729;SDS011;11027;51.030;13.812;2023-04-03T15:22:28;2.55;;;1.40;;
21729;SDS011;11027;51.030;13.812;2023-04-03T15:24:53;4.00;;;1.23;;
21729;SDS011;11027;51.030;13.812;2023-04-03T15:27:19;2.33;;;1.13;;
21729;SDS011;11027;51.030;13.812;2023-04-03T15:29:44;3.92;;;1.20;;
21729;SDS011;11027;51.030;13.812;2023-04-03T15:32:10;5.32;;;1.80;;
21729;SDS011;11027;51.030;13.812;2023-04-03T15:34:36;2.53;;;1.00;;
21729;SDS011;11027;51.030;13.812;2023-04-03T15:37:02;1.50;;;0.73;;
21729;SDS011;11027;51.030;13.812;2023-04-03T15:39:27;3.30;;;0.82;;
21729;SDS011;11027;51.030;13.812;2023-04-03T15:41:53;2.53;;;1.00;;
21729;SDS011;11027;51.030;13.812;2023-04-03T15:44:19;1.40;;;0.80;;
21729;SDS011;11027;51.030;13.812;2023-04-03T15:46:45;3.67;;;0.93;;
21729;SDS011;11027;51.030;13.812;2023-04-03T15:49:12;3.45;;;1.10;;
21729;SDS011;11027;51.030;13.812;2023-04-03T15:51:38;3.03;;;0.93;;
21729;SDS011;11027;51.030;13.812;2023-04-03T15:54:03;2.38;;;1.20;;
21729;SDS011;11027;51.030;13.812;2023-04-03T15:56:29;3.05;;;1.20;;